sensor_id;sensor_type;location;lat;lon;timestamp;P1;durP1;ratioP1;P2;durP2;ratioP2
78197;SDS011;67472;51.554;7.812;2024-03-23T00:52:20;16.13;;;5.18;;
78197;SDS011;67472;51.554;7.812;2024-03-23T00:55:06;18.58;;;4.63;;
78197;SDS011;67472;51.554;7.812;2024-03-23T00:57:52;18.60;;;5.32;;
78197;SDS011;67472;51.554;7.812;2024-03-23T01:00:38;15.60;;;5.40;;
78197;SDS011;67472;51.554;7.812;2024-03-23T01:03:23;13.02;;;4.93;;
78197;SDS011;67472;51.554;7.812;2024-03-23T01:06:09;14.38;;;5.75;;
78197;SDS011;67472;51.554;7.812;2024-03-23T01:08:55;12.85;;;5.75;;
78197;SDS011;67472;51.554;7.812;2024-03-23T01:11:41;20.50;;;5.60;;
78197;SDS011;67472;51.554;7.812;2024-03-23T01:14:26;28.70;;;5.75;;
78197;SDS011;67472;51.554;7.812;2024-03-23T01:17:12;22.17;;;5.40;;
78197;SDS011;67472;51.554;7.812;2024-03-23T01:19:57;17.90;;;5.25;;
78197;SDS011;67472;51.554;7.812;2024-03-23T01:22:43;12.95;;;5.10;;
78197;SDS011;67472;51.554;7.812;2024-03-23T01:25:30;12.18;;;4.03;;
78197;SDS011;67472;51.554;7.812;2024-03-23T01:28:16;8.98;;;2.95;;
78197;SDS011;67472;51.554;7.812;2024-03-23T01:31:01;10.88;;;2.80;;
78197;SDS011;67472;51.554;7.812;2024-03-23T01:33:47;10.77;;;3.40;;
78197;SDS011;67472;51.554;7.812;2024-03-23T01:36:32;11.10;;;3.25;;
78197;SDS011;67472;51.554;7.812;2024-03-23T01:39:18;10.43;;;3.55;;
78197;SDS011;67472;51.554;7.812;2024-03-23T01:42:04;8.45;;;3.40;;
78197;SDS011;67472;51.554;7.812;2024-03-23T01:44:51;11.50;;;3.00;;
78197;SDS011;67472;51.554;7.812;2024-03-23T01:47:35;7.15;;;2.85;;
78197;SDS011;67472;51.554;7.812;2024-03-23T01:50:21;11.82;;;2.95;;
78197;SDS011;67472;51.554;7.812;2024-03-23T01:53:08;13.52;;;3.30;;
78197;SDS011;67472;51.554;7.812;2024-03-23T01:55:54;8.77;;;2.80;;
78197;SDS011;67472;51.554;7.812;2024-03-23T01:58:42;7.15;;;2.17;;
78197;SDS011;67472;51.554;7.812;2024-03-23T02:01:30;14.15;;;3.17;;
78197;SDS011;67472;51.554;7.812;2024-03-23T02:04:15;9.27;;;2.97;;
78197;SDS011;67472;51.554;7.812;2024-03-23T02:07:01;15.80;;;3.53;;
78197;SDS011;67472;51.554;7.812;2024-03-23T02:09:46;8.23;;;2.78;;
78197;SDS011;67472;51.554;7.812;2024-03-23T02:12:32;10.48;;;2.83;;
78197;SDS011;67472;51.554;7.812;2024-03-23T02:15:19;15.25;;;3.35;;
78197;SDS011;67472;51.554;7.812;2024-03-23T02:18:06;13.45;;;2.92;;
78197;SDS011;67472;51.554;7.812;2024-03-23T02:20:52;11.55;;;3.58;;
78197;SDS011;67472;51.554;7.812;2024-03-23T02:23:39;8.20;;;2.88;;
78197;SDS011;67472;51.554;7.812;2024-03-23T02:26:24;8.10;;;2.80;;
78197;SDS011;67472;51.554;7.812;2024-03-23T02:29:10;12.38;;;2.97;;
78197;SDS011;67472;51.554;7.812;2024-03-23T02:31:55;5.65;;;2.83;;
78197;SDS011;67472;51.554;7.812;2024-03-23T02:34:41;14.63;;;3.72;;
78197;SDS011;67472;51.554;7.812;2024-03-23T02:37:26;7.72;;;3.40;;
78197;SDS011;67472;51.554;7.812;2024-03-23T02:40:13;13.38;;;3.67;;
78197;SDS011;67472;51.554;7.812;2024-03-23T02:42:59;11.48;;;3.80;;
78197;SDS011;67472;51.554;7.812;2024-03-23T02:45:45;8.98;;;3.90;;
78197;SDS011;67472;51.554;7.812;2024-03-23T02:48:30;11.38;;;3.55;;
78197;SDS011;67472;51.554;7.812;2024-03-23T02:51:16;15.00;;;4.45;;
78197;SDS011;67472;51.554;7.812;2024-03-23T02:54:01;11.50;;;3.78;;
78197;SDS011;67472;51.554;7.812;2024-03-23T02:56:49;13.20;;;3.90;;
78197;SDS011;67472;51.554;7.812;2024-03-23T02:59:34;10.15;;;3.63;;
78197;SDS011;67472;51.554;7.812;2024-03-23T03:02:20;11.30;;;4.35;;
78197;SDS011;67472;51.554;7.812;2024-03-23T03:05:05;13.38;;;4.43;;
78197;SDS011;67472;51.554;7.812;2024-03-23T03:07:53;11.00;;;3.60;;
78197;SDS011;67472;51.554;7.812;2024-03-23T03:10:39;12.48;;;3.70;;
78197;SDS011;67472;51.554;7.812;2024-03-23T03:13:26;10.10;;;3.55;;
78197;SDS011;67472;51.554;7.812;2024-03-23T03:16:12;16.55;;;3.42;;
78197;SDS011;67472;51.554;7.812;2024-03-23T03:18:58;16.33;;;3.58;;
78197;SDS011;67472;51.554;7.812;2024-03-23T03:21:44;11.02;;;3.25;;
78197;SDS011;67472;51.554;7.812;2024-03-23T03:24:32;11.75;;;3.35;;
78197;SDS011;67472;51.554;7.812;2024-03-23T03:27:17;14.23;;;3.72;;
78197;SDS011;67472;51.554;7.812;2024-03-23T03:30:05;6.43;;;3.15;;
78197;SDS011;67472;51.554;7.812;2024-03-23T03:32:53;8.07;;;3.20;;
78197;SDS011;67472;51.554;7.812;2024-03-23T03:35:39;9.52;;;3.20;;
78197;SDS011;67472;51.554;7.812;2024-03-23T03:38:24;7.82;;;2.75;;
78197;SDS011;67472;51.554;7.812;2024-03-23T03:41:10;11.90;;;3.03;;
78197;SDS011;67472;51.554;7.812;2024-03-23T03:43:55;12.90;;;3.42;;
78197;SDS011;67472;51.554;7.812;2024-03-23T03:46:47;8.13;;;2.83;;
78197;SDS011;67472;51.554;7.812;2024-03-23T03:49:32;9.10;;;2.67;;
78197;SDS011;67472;51.554;7.812;2024-03-23T03:52:18;6.95;;;3.22;;
78197;SDS011;67472;51.554;7.812;2024-03-23T03:55:03;10.13;;;3.45;;
78197;SDS011;67472;51.554;7.812;2024-03-23T03:57:58;8.77;;;3.17;;
78197;SDS011;67472;51.554;7.812;2024-03-23T04:00:43;8.13;;;2.63;;
78197;SDS011;67472;51.554;7.812;2024-03-23T04:03:30;11.77;;;2.92;;
78197;SDS011;67472;51.554;7.812;2024-03-23T04:06:18;8.63;;;2.80;;
78197;SDS011;67472;51.554;7.812;2024-03-23T04:09:03;11.80;;;3.10;;
78197;SDS011;67472;51.554;7.812;2024-03-23T04:11:51;7.55;;;2.88;;
78197;SDS011;67472;51.554;7.812;2024-03-23T04:14:36;11.32;;;3.33;;
78197;SDS011;67472;51.554;7.812;2024-03-23T04:17:22;7.25;;;3.00;;
78197;SDS011;67472;51.554;7.812;2024-03-23T04:20:11;7.70;;;3.22;;
78197;SDS011;67472;51.554;7.812;2024-03-23T04:22:58;10.65;;;2.90;;
78197;SDS011;67472;51.554;7.812;2024-03-23T04:25:45;6.68;;;2.67;;
78197;SDS011;67472;51.554;7.812;2024-03-23T04:28:30;9.70;;;3.15;;
78197;SDS011;67472;51.554;7.812;2024-03-23T04:31:16;13.02;;;2.88;;
78197;SDS011;67472;51.554;7.812;2024-03-23T04:34:01;9.27;;;3.13;;
78197;SDS011;67472;51.554;7.812;2024-03-23T04:36:51;12.63;;;3.63;;
78197;SDS011;67472;51.554;7.812;2024-03-23T04:39:36;8.85;;;3.28;;
78197;SDS011;67472;51.554;7.812;2024-03-23T04:42:23;8.60;;;3.13;;
78197;SDS011;67472;51.554;7.812;2024-03-23T04:45:09;8.45;;;2.80;;
78197;SDS011;67472;51.554;7.812;2024-03-23T04:47:56;10.48;;;2.90;;
78197;SDS011;67472;51.554;7.812;2024-03-23T04:50:42;11.80;;;2.42;;
78197;SDS011;67472;51.554;7.812;2024-03-23T04:53:29;10.27;;;2.50;;
78197;SDS011;67472;51.554;7.812;2024-03-23T04:56:15;17.75;;;3.25;;
78197;SDS011;67472;51.554;7.812;2024-03-23T04:59:03;13.95;;;2.38;;
78197;SDS011;67472;51.554;7.812;2024-03-23T05:01:49;7.65;;;2.53;;
78197;SDS011;67472;51.554;7.812;2024-03-23T05:04:35;13.40;;;3.00;;
78197;SDS011;67472;51.554;7.812;2024-03-23T05:07:21;11.70;;;2.85;;
78197;SDS011;67472;51.554;7.812;2024-03-23T05:10:09;9.65;;;2.72;;
78197;SDS011;67472;51.554;7.812;2024-03-23T05:12:55;14.13;;;3.05;;
78197;SDS011;67472;51.554;7.812;2024-03-23T05:15:41;10.77;;;3.08;;
78197;SDS011;67472;51.554;7.812;2024-03-23T05:18:26;9.27;;;3.40;;
78197;SDS011;67472;51.554;7.812;2024-03-23T05:21:12;9.68;;;2.70;;
78197;SDS011;67472;51.554;7.812;2024-03-23T05:23:57;12.05;;;2.60;;
78197;SDS011;67472;51.554;7.812;2024-03-23T05:26:45;7.82;;;2.70;;
78197;SDS011;67472;51.554;7.812;2024-03-23T05:29:30;8.35;;;2.60;;
78197;SDS011;67472;51.554;7.812;2024-03-23T05:32:16;9.63;;;3.28;;
78197;SDS011;67472;51.554;7.812;2024-03-23T05:35:01;14.63;;;3.25;;
78197;SDS011;67472;51.554;7.812;2024-03-23T05:37:47;12.55;;;3.47;;
78197;SDS011;67472;51.554;7.812;2024-03-23T05:40:32;13.00;;;3.35;;
78197;SDS011;67472;51.554;7.812;2024-03-23T05:43:23;14.70;;;3.45;;
78197;SDS011;67472;51.554;7.812;2024-03-23T05:46:08;10.20;;;3.20;;
78197;SDS011;67472;51.554;7.812;2024-03-23T05:48:54;14.48;;;3.20;;
78197;SDS011;67472;51.554;7.812;2024-03-23T05:51:48;13.98;;;3.20;;
78197;SDS011;67472;51.554;7.812;2024-03-23T05:54:33;9.02;;;2.95;;
78197;SDS011;67472;51.554;7.812;2024-03-23T05:57:19;18.85;;;3.58;;
78197;SDS011;67472;51.554;7.812;2024-03-23T06:00:07;14.27;;;3.25;;
78197;SDS011;67472;51.554;7.812;2024-03-23T06:03:00;10.65;;;3.03;;
78197;SDS011;67472;51.554;7.812;2024-03-23T06:05:45;10.48;;;3.33;;
78197;SDS011;67472;51.554;7.812;2024-03-23T06:08:31;12.48;;;3.33;;
78197;SDS011;67472;51.554;7.812;2024-03-23T06:11:17;19.27;;;4.90;;
78197;SDS011;67472;51.554;7.812;2024-03-23T06:14:03;10.00;;;3.65;;
78197;SDS011;67472;51.554;7.812;2024-03-23T06:16:50;14.00;;;4.88;;
78197;SDS011;67472;51.554;7.812;2024-03-23T06:19:36;17.48;;;4.10;;
78197;SDS011;67472;51.554;7.812;2024-03-23T06:22:21;11.40;;;4.47;;
78197;SDS011;67472;51.554;7.812;2024-03-23T06:25:07;13.88;;;4.45;;
78197;SDS011;67472;51.554;7.812;2024-03-23T06:27:53;11.65;;;4.68;;
78197;SDS011;67472;51.554;7.812;2024-03-23T06:30:39;12.88;;;4.43;;
78197;SDS011;67472;51.554;7.812;2024-03-23T06:33:25;14.23;;;5.70;;
78197;SDS011;67472;51.554;7.812;2024-03-23T06:36:11;17.75;;;6.25;;
78197;SDS011;67472;51.554;7.812;2024-03-23T06:38:57;17.33;;;7.20;;
78197;SDS011;67472;51.554;7.812;2024-03-23T06:41:44;23.95;;;7.55;;
78197;SDS011;67472;51.554;7.812;2024-03-23T06:44:37;14.65;;;8.23;;
78197;SDS011;67472;51.554;7.812;2024-03-23T06:47:23;23.02;;;9.48;;
78197;SDS011;67472;51.554;7.812;2024-03-23T06:50:11;22.45;;;10.20;;
78197;SDS011;67472;51.554;7.812;2024-03-23T06:52:57;25.38;;;10.00;;
78197;SDS011;67472;51.554;7.812;2024-03-23T06:55:43;20.17;;;11.00;;
78197;SDS011;67472;51.554;7.812;2024-03-23T06:58:36;30.13;;;12.38;;
78197;SDS011;67472;51.554;7.812;2024-03-23T07:01:21;23.02;;;11.48;;
78197;SDS011;67472;51.554;7.812;2024-03-23T07:04:07;32.78;;;13.90;;
78197;SDS011;67472;51.554;7.812;2024-03-23T07:06:54;28.30;;;13.30;;
78197;SDS011;67472;51.554;7.812;2024-03-23T07:09:40;23.02;;;13.93;;
78197;SDS011;67472;51.554;7.812;2024-03-23T07:12:25;28.52;;;14.57;;
78197;SDS011;67472;51.554;7.812;2024-03-23T07:15:11;25.83;;;14.57;;
78197;SDS011;67472;51.554;7.812;2024-03-23T07:17:56;34.47;;;17.13;;
78197;SDS011;67472;51.554;7.812;2024-03-23T07:20:42;36.90;;;18.60;;
78197;SDS011;67472;51.554;7.812;2024-03-23T07:23:37;40.13;;;21.60;;
78197;SDS011;67472;51.554;7.812;2024-03-23T07:26:26;39.70;;;19.42;;
78197;SDS011;67472;51.554;7.812;2024-03-23T07:29:11;35.50;;;19.98;;
78197;SDS011;67472;51.554;7.812;2024-03-23T07:31:58;35.85;;;19.92;;
78197;SDS011;67472;51.554;7.812;2024-03-23T07:34:43;53.88;;;20.98;;
78197;SDS011;67472;51.554;7.812;2024-03-23T07:37:29;39.60;;;20.67;;
78197;SDS011;67472;51.554;7.812;2024-03-23T07:40:16;42.53;;;20.98;;
78197;SDS011;67472;51.554;7.812;2024-03-23T07:43:02;35.13;;;21.70;;
78197;SDS011;67472;51.554;7.812;2024-03-23T07:45:51;40.33;;;21.42;;
78197;SDS011;67472;51.554;7.812;2024-03-23T07:48:38;34.28;;;19.48;;
78197;SDS011;67472;51.554;7.812;2024-03-23T07:51:24;34.55;;;20.02;;
78197;SDS011;67472;51.554;7.812;2024-03-23T07:54:11;40.72;;;20.50;;
78197;SDS011;67472;51.554;7.812;2024-03-23T07:56:58;47.92;;;21.17;;
78197;SDS011;67472;51.554;7.812;2024-03-23T07:59:44;32.85;;;20.25;;
78197;SDS011;67472;51.554;7.812;2024-03-23T08:02:29;35.38;;;18.55;;
78197;SDS011;67472;51.554;7.812;2024-03-23T08:05:15;35.15;;;18.45;;
78197;SDS011;67472;51.554;7.812;2024-03-23T08:08:01;38.40;;;19.77;;
78197;SDS011;67472;51.554;7.812;2024-03-23T08:10:48;37.22;;;17.30;;
78197;SDS011;67472;51.554;7.812;2024-03-23T08:13:38;33.22;;;16.85;;
78197;SDS011;67472;51.554;7.812;2024-03-23T08:16:25;29.25;;;16.17;;
78197;SDS011;67472;51.554;7.812;2024-03-23T08:19:11;25.38;;;15.48;;
78197;SDS011;67472;51.554;7.812;2024-03-23T08:21:58;29.52;;;14.63;;
78197;SDS011;67472;51.554;7.812;2024-03-23T08:24:44;25.73;;;13.02;;
78197;SDS011;67472;51.554;7.812;2024-03-23T08:27:31;21.58;;;13.13;;
78197;SDS011;67472;51.554;7.812;2024-03-23T08:30:19;29.05;;;13.48;;
78197;SDS011;67472;51.554;7.812;2024-03-23T08:33:06;27.58;;;13.18;;
78197;SDS011;67472;51.554;7.812;2024-03-23T08:35:55;33.35;;;14.90;;
78197;SDS011;67472;51.554;7.812;2024-03-23T08:38:42;24.88;;;13.77;;
78197;SDS011;67472;51.554;7.812;2024-03-23T08:41:28;27.52;;;14.45;;
78197;SDS011;67472;51.554;7.812;2024-03-23T08:44:14;25.58;;;12.90;;
78197;SDS011;67472;51.554;7.812;2024-03-23T08:47:02;22.05;;;10.63;;
78197;SDS011;67472;51.554;7.812;2024-03-23T08:49:48;20.80;;;11.15;;
78197;SDS011;67472;51.554;7.812;2024-03-23T08:52:35;20.92;;;11.68;;
78197;SDS011;67472;51.554;7.812;2024-03-23T08:55:22;23.23;;;9.77;;
78197;SDS011;67472;51.554;7.812;2024-03-23T08:58:08;21.38;;;10.35;;
78197;SDS011;67472;51.554;7.812;2024-03-23T09:00:55;22.08;;;10.25;;
78197;SDS011;67472;51.554;7.812;2024-03-23T09:03:43;19.35;;;10.85;;
78197;SDS011;67472;51.554;7.812;2024-03-23T09:06:30;17.27;;;10.15;;
78197;SDS011;67472;51.554;7.812;2024-03-23T09:09:16;23.08;;;10.10;;
78197;SDS011;67472;51.554;7.812;2024-03-23T09:12:05;16.15;;;10.65;;
78197;SDS011;67472;51.554;7.812;2024-03-23T09:14:51;18.90;;;9.88;;
78197;SDS011;67472;51.554;7.812;2024-03-23T09:17:38;22.58;;;11.23;;
78197;SDS011;67472;51.554;7.812;2024-03-23T09:20:25;19.00;;;10.02;;
78197;SDS011;67472;51.554;7.812;2024-03-23T09:23:12;16.30;;;8.30;;
78197;SDS011;67472;51.554;7.812;2024-03-23T09:25:58;21.45;;;7.95;;
78197;SDS011;67472;51.554;7.812;2024-03-23T09:28:49;14.50;;;6.88;;
78197;SDS011;67472;51.554;7.812;2024-03-23T09:31:34;18.65;;;7.78;;
78197;SDS011;67472;51.554;7.812;2024-03-23T09:34:20;15.90;;;7.30;;
78197;SDS011;67472;51.554;7.812;2024-03-23T09:37:07;13.93;;;6.63;;
78197;SDS011;67472;51.554;7.812;2024-03-23T09:39:53;17.55;;;8.15;;
78197;SDS011;67472;51.554;7.812;2024-03-23T09:42:38;14.13;;;6.80;;
78197;SDS011;67472;51.554;7.812;2024-03-23T09:45:26;11.95;;;6.68;;
78197;SDS011;67472;51.554;7.812;2024-03-23T09:48:12;14.73;;;5.85;;
78197;SDS011;67472;51.554;7.812;2024-03-23T09:50:59;11.73;;;5.68;;
78197;SDS011;67472;51.554;7.812;2024-03-23T09:53:45;8.45;;;5.00;;
78197;SDS011;67472;51.554;7.812;2024-03-23T09:56:31;15.25;;;6.35;;
78197;SDS011;67472;51.554;7.812;2024-03-23T09:59:16;10.60;;;5.80;;
78197;SDS011;67472;51.554;7.812;2024-03-23T10:02:02;5.75;;;5.03;;
78197;SDS011;67472;51.554;7.812;2024-03-23T10:04:48;17.52;;;5.85;;
78197;SDS011;67472;51.554;7.812;2024-03-23T10:07:35;10.85;;;4.72;;
78197;SDS011;67472;51.554;7.812;2024-03-23T10:10:22;13.90;;;4.43;;
78197;SDS011;67472;51.554;7.812;2024-03-23T10:13:11;9.07;;;4.00;;
78197;SDS011;67472;51.554;7.812;2024-03-23T10:16:09;10.40;;;3.47;;
78197;SDS011;67472;51.554;7.812;2024-03-23T10:18:54;7.43;;;3.00;;
78197;SDS011;67472;51.554;7.812;2024-03-23T10:21:41;9.70;;;2.97;;
78197;SDS011;67472;51.554;7.812;2024-03-23T10:24:37;9.02;;;3.40;;
78197;SDS011;67472;51.554;7.812;2024-03-23T10:27:24;7.57;;;3.20;;
78197;SDS011;67472;51.554;7.812;2024-03-23T10:30:10;7.07;;;4.20;;
78197;SDS011;67472;51.554;7.812;2024-03-23T10:33:06;11.10;;;3.97;;
78197;SDS011;67472;51.554;7.812;2024-03-23T10:35:52;11.50;;;4.00;;
78197;SDS011;67472;51.554;7.812;2024-03-23T10:38:40;8.73;;;3.50;;
78197;SDS011;67472;51.554;7.812;2024-03-23T10:41:26;9.27;;;3.88;;
78197;SDS011;67472;51.554;7.812;2024-03-23T10:44:15;9.63;;;3.90;;
78197;SDS011;67472;51.554;7.812;2024-03-23T10:47:02;8.63;;;4.97;;
78197;SDS011;67472;51.554;7.812;2024-03-23T10:49:49;7.85;;;4.45;;
78197;SDS011;67472;51.554;7.812;2024-03-23T10:52:34;10.77;;;4.90;;
78197;SDS011;67472;51.554;7.812;2024-03-23T10:55:21;8.60;;;5.15;;
78197;SDS011;67472;51.554;7.812;2024-03-23T10:58:08;10.20;;;5.68;;
78197;SDS011;67472;51.554;7.812;2024-03-23T11:00:58;7.80;;;4.88;;
78197;SDS011;67472;51.554;7.812;2024-03-23T11:03:45;8.95;;;4.15;;
78197;SDS011;67472;51.554;7.812;2024-03-23T11:06:34;7.35;;;3.90;;
78197;SDS011;67472;51.554;7.812;2024-03-23T11:12:25;7.65;;;4.43;;
78197;SDS011;67472;51.554;7.812;2024-03-23T11:15:13;8.88;;;3.55;;
78197;SDS011;67472;51.554;7.812;2024-03-23T11:18:06;10.20;;;4.88;;
78197;SDS011;67472;51.554;7.812;2024-03-23T11:20:53;7.50;;;3.80;;
78197;SDS011;67472;51.554;7.812;2024-03-23T11:23:39;4.60;;;3.33;;
78197;SDS011;67472;51.554;7.812;2024-03-23T11:26:25;13.48;;;4.90;;
78197;SDS011;67472;51.554;7.812;2024-03-23T11:29:11;9.15;;;4.60;;
78197;SDS011;67472;51.554;7.812;2024-03-23T11:31:58;10.65;;;4.75;;
78197;SDS011;67472;51.554;7.812;2024-03-23T11:34:49;7.90;;;4.55;;
78197;SDS011;67472;51.554;7.812;2024-03-23T11:37:35;5.72;;;3.40;;
78197;SDS011;67472;51.554;7.812;2024-03-23T11:40:22;8.27;;;3.75;;
78197;SDS011;67472;51.554;7.812;2024-03-23T11:43:08;8.57;;;3.80;;
78197;SDS011;67472;51.554;7.812;2024-03-23T11:45:56;6.00;;;3.60;;
78197;SDS011;67472;51.554;7.812;2024-03-23T11:48:49;3.97;;;1.77;;
78197;SDS011;67472;51.554;7.812;2024-03-23T11:51:37;4.15;;;1.65;;
78197;SDS011;67472;51.554;7.812;2024-03-23T11:54:22;4.60;;;1.13;;
78197;SDS011;67472;51.554;7.812;2024-03-23T11:57:10;2.95;;;2.13;;
78197;SDS011;67472;51.554;7.812;2024-03-23T11:59:55;1.90;;;1.77;;
78197;SDS011;67472;51.554;7.812;2024-03-23T12:02:42;4.22;;;1.92;;
78197;SDS011;67472;51.554;7.812;2024-03-23T12:05:27;5.35;;;2.03;;
78197;SDS011;67472;51.554;7.812;2024-03-23T12:08:19;2.95;;;1.75;;
78197;SDS011;67472;51.554;7.812;2024-03-23T12:11:06;1.90;;;1.30;;
78197;SDS011;67472;51.554;7.812;2024-03-23T12:13:53;2.15;;;1.75;;
78197;SDS011;67472;51.554;7.812;2024-03-23T12:16:44;3.00;;;1.35;;
78197;SDS011;67472;51.554;7.812;2024-03-23T12:19:31;1.65;;;1.17;;
78197;SDS011;67472;51.554;7.812;2024-03-23T12:22:16;3.60;;;1.10;;
78197;SDS011;67472;51.554;7.812;2024-03-23T12:25:08;4.30;;;1.50;;
78197;SDS011;67472;51.554;7.812;2024-03-23T12:27:53;6.40;;;1.08;;
78197;SDS011;67472;51.554;7.812;2024-03-23T12:30:39;1.80;;;1.27;;
78197;SDS011;67472;51.554;7.812;2024-03-23T12:33:25;5.05;;;1.33;;
78197;SDS011;67472;51.554;7.812;2024-03-23T12:36:11;7.63;;;1.65;;
78197;SDS011;67472;51.554;7.812;2024-03-23T12:38:56;2.80;;;1.60;;
78197;SDS011;67472;51.554;7.812;2024-03-23T12:41:44;3.45;;;1.67;;
78197;SDS011;67472;51.554;7.812;2024-03-23T12:44:29;2.38;;;1.35;;
78197;SDS011;67472;51.554;7.812;2024-03-23T12:47:16;2.95;;;1.70;;
78197;SDS011;67472;51.554;7.812;2024-03-23T12:50:01;3.83;;;2.00;;
78197;SDS011;67472;51.554;7.812;2024-03-23T12:52:47;6.03;;;3.33;;
78197;SDS011;67472;51.554;7.812;2024-03-23T12:55:34;7.28;;;2.15;;
78197;SDS011;67472;51.554;7.812;2024-03-23T12:58:22;5.15;;;2.60;;
78197;SDS011;67472;51.554;7.812;2024-03-23T13:01:16;6.30;;;2.63;;
78197;SDS011;67472;51.554;7.812;2024-03-23T13:04:04;7.53;;;2.78;;
78197;SDS011;67472;51.554;7.812;2024-03-23T13:06:49;6.75;;;3.25;;
78197;SDS011;67472;51.554;7.812;2024-03-23T13:09:35;6.13;;;2.83;;
78197;SDS011;67472;51.554;7.812;2024-03-23T13:12:20;6.40;;;3.22;;
78197;SDS011;67472;51.554;7.812;2024-03-23T13:15:06;2.38;;;1.80;;
78197;SDS011;67472;51.554;7.812;2024-03-23T13:17:54;1.85;;;1.58;;
78197;SDS011;67472;51.554;7.812;2024-03-23T13:20:40;5.03;;;2.00;;
78197;SDS011;67472;51.554;7.812;2024-03-23T13:23:25;2.67;;;1.92;;
78197;SDS011;67472;51.554;7.812;2024-03-23T13:26:12;7.90;;;2.15;;
78197;SDS011;67472;51.554;7.812;2024-03-23T13:28:58;4.72;;;1.75;;
78197;SDS011;67472;51.554;7.812;2024-03-23T13:31:43;6.75;;;2.15;;
78197;SDS011;67472;51.554;7.812;2024-03-23T13:34:30;4.07;;;1.63;;
78197;SDS011;67472;51.554;7.812;2024-03-23T13:37:15;3.83;;;1.30;;
78197;SDS011;67472;51.554;7.812;2024-03-23T13:40:03;3.53;;;1.30;;
78197;SDS011;67472;51.554;7.812;2024-03-23T13:42:48;4.97;;;1.80;;
78197;SDS011;67472;51.554;7.812;2024-03-23T13:45:34;5.32;;;1.67;;
78197;SDS011;67472;51.554;7.812;2024-03-23T13:48:21;6.47;;;1.52;;
78197;SDS011;67472;51.554;7.812;2024-03-23T13:51:10;5.43;;;2.08;;
78197;SDS011;67472;51.554;7.812;2024-03-23T13:53:56;3.92;;;1.73;;
78197;SDS011;67472;51.554;7.812;2024-03-23T13:56:45;2.67;;;2.00;;
78197;SDS011;67472;51.554;7.812;2024-03-23T13:59:30;2.08;;;1.63;;
78197;SDS011;67472;51.554;7.812;2024-03-23T14:02:16;4.28;;;2.00;;
78197;SDS011;67472;51.554;7.812;2024-03-23T14:05:01;7.57;;;1.70;;
78197;SDS011;67472;51.554;7.812;2024-03-23T14:07:50;2.75;;;1.70;;
78197;SDS011;67472;51.554;7.812;2024-03-23T14:10:36;3.53;;;1.55;;
78197;SDS011;67472;51.554;7.812;2024-03-23T14:13:26;2.78;;;1.42;;
78197;SDS011;67472;51.554;7.812;2024-03-23T14:16:12;2.75;;;1.10;;
78197;SDS011;67472;51.554;7.812;2024-03-23T14:18:58;5.63;;;1.77;;
78197;SDS011;67472;51.554;7.812;2024-03-23T14:21:43;2.03;;;1.75;;
78197;SDS011;67472;51.554;7.812;2024-03-23T14:24:30;2.40;;;1.88;;
78197;SDS011;67472;51.554;7.812;2024-03-23T14:27:17;2.30;;;1.45;;
78197;SDS011;67472;51.554;7.812;2024-03-23T14:30:04;2.38;;;1.20;;
78197;SDS011;67472;51.554;7.812;2024-03-23T14:32:50;1.77;;;1.15;;
78197;SDS011;67472;51.554;7.812;2024-03-23T14:35:36;1.88;;;1.30;;
78197;SDS011;67472;51.554;7.812;2024-03-23T14:38:22;2.88;;;1.63;;
78197;SDS011;67472;51.554;7.812;2024-03-23T14:41:10;2.28;;;1.20;;
78197;SDS011;67472;51.554;7.812;2024-03-23T14:43:55;2.00;;;1.15;;
78197;SDS011;67472;51.554;7.812;2024-03-23T14:46:42;3.30;;;1.60;;
78197;SDS011;67472;51.554;7.812;2024-03-23T14:49:27;3.42;;;1.75;;
78197;SDS011;67472;51.554;7.812;2024-03-23T14:52:13;2.60;;;1.58;;
78197;SDS011;67472;51.554;7.812;2024-03-23T14:55:00;1.88;;;1.73;;
78197;SDS011;67472;51.554;7.812;2024-03-23T14:57:46;2.22;;;1.70;;
78197;SDS011;67472;51.554;7.812;2024-03-23T15:00:35;6.05;;;2.47;;
78197;SDS011;67472;51.554;7.812;2024-03-23T15:03:21;4.38;;;2.10;;
78197;SDS011;67472;51.554;7.812;2024-03-23T15:06:07;7.55;;;2.42;;
78197;SDS011;67472;51.554;7.812;2024-03-23T15:08:54;7.93;;;2.20;;
78197;SDS011;67472;51.554;7.812;2024-03-23T15:11:40;5.00;;;1.85;;
78197;SDS011;67472;51.554;7.812;2024-03-23T15:14:27;5.13;;;1.85;;
78197;SDS011;67472;51.554;7.812;2024-03-23T15:17:13;4.25;;;1.13;;
78197;SDS011;67472;51.554;7.812;2024-03-23T15:19:58;3.63;;;2.30;;
78197;SDS011;67472;51.554;7.812;2024-03-23T15:22:44;5.88;;;1.80;;
78197;SDS011;67472;51.554;7.812;2024-03-23T15:25:29;3.30;;;1.50;;
78197;SDS011;67472;51.554;7.812;2024-03-23T15:28:17;5.63;;;1.30;;
78197;SDS011;67472;51.554;7.812;2024-03-23T15:31:04;2.75;;;1.50;;
78197;SDS011;67472;51.554;7.812;2024-03-23T15:33:51;4.15;;;1.38;;
78197;SDS011;67472;51.554;7.812;2024-03-23T15:36:36;3.42;;;1.50;;
78197;SDS011;67472;51.554;7.812;2024-03-23T15:39:23;3.95;;;1.42;;
78197;SDS011;67472;51.554;7.812;2024-03-23T15:42:10;4.38;;;1.67;;
78197;SDS011;67472;51.554;7.812;2024-03-23T15:44:55;4.45;;;1.40;;
78197;SDS011;67472;51.554;7.812;2024-03-23T15:47:42;4.05;;;1.92;;
78197;SDS011;67472;51.554;7.812;2024-03-23T15:50:28;5.20;;;1.70;;
78197;SDS011;67472;51.554;7.812;2024-03-23T15:53:14;1.80;;;1.42;;
78197;SDS011;67472;51.554;7.812;2024-03-23T15:56:00;4.38;;;1.30;;
78197;SDS011;67472;51.554;7.812;2024-03-23T15:58:47;3.42;;;1.40;;
78197;SDS011;67472;51.554;7.812;2024-03-23T16:01:33;3.17;;;1.42;;
78197;SDS011;67472;51.554;7.812;2024-03-23T16:04:21;6.05;;;1.40;;
78197;SDS011;67472;51.554;7.812;2024-03-23T16:07:06;6.50;;;1.55;;
78197;SDS011;67472;51.554;7.812;2024-03-23T16:09:53;5.05;;;1.40;;
78197;SDS011;67472;51.554;7.812;2024-03-23T16:12:39;4.40;;;1.25;;
78197;SDS011;67472;51.554;7.812;2024-03-23T16:15:25;3.42;;;1.40;;
78197;SDS011;67472;51.554;7.812;2024-03-23T16:18:11;5.05;;;1.35;;
78197;SDS011;67472;51.554;7.812;2024-03-23T16:20:58;8.18;;;1.77;;
78197;SDS011;67472;51.554;7.812;2024-03-23T16:23:47;6.55;;;2.30;;
78197;SDS011;67472;51.554;7.812;2024-03-23T16:26:33;3.13;;;1.48;;
78197;SDS011;67472;51.554;7.812;2024-03-23T16:29:19;4.10;;;1.65;;
78197;SDS011;67472;51.554;7.812;2024-03-23T16:32:06;3.33;;;1.55;;
78197;SDS011;67472;51.554;7.812;2024-03-23T16:34:52;3.83;;;1.20;;
78197;SDS011;67472;51.554;7.812;2024-03-23T16:37:39;2.58;;;1.13;;
78197;SDS011;67472;51.554;7.812;2024-03-23T16:40:24;3.13;;;1.35;;
78197;SDS011;67472;51.554;7.812;2024-03-23T16:43:11;4.95;;;1.70;;
78197;SDS011;67472;51.554;7.812;2024-03-23T16:45:56;5.97;;;1.60;;
78197;SDS011;67472;51.554;7.812;2024-03-23T16:48:44;5.07;;;1.90;;
78197;SDS011;67472;51.554;7.812;2024-03-23T16:51:30;3.60;;;1.30;;
78197;SDS011;67472;51.554;7.812;2024-03-23T16:54:18;6.13;;;1.63;;
78197;SDS011;67472;51.554;7.812;2024-03-23T16:57:04;3.85;;;1.92;;
78197;SDS011;67472;51.554;7.812;2024-03-23T16:59:50;5.75;;;1.60;;
78197;SDS011;67472;51.554;7.812;2024-03-23T17:02:36;9.38;;;2.28;;
78197;SDS011;67472;51.554;7.812;2024-03-23T17:05:23;2.30;;;1.33;;
78197;SDS011;67472;51.554;7.812;2024-03-23T17:08:09;4.05;;;1.80;;
78197;SDS011;67472;51.554;7.812;2024-03-23T17:10:58;3.53;;;1.98;;
78197;SDS011;67472;51.554;7.812;2024-03-23T17:13:45;5.22;;;1.70;;
78197;SDS011;67472;51.554;7.812;2024-03-23T17:16:35;7.60;;;2.88;;
78197;SDS011;67472;51.554;7.812;2024-03-23T17:19:20;9.73;;;2.53;;
78197;SDS011;67472;51.554;7.812;2024-03-23T17:22:07;5.20;;;1.98;;
78197;SDS011;67472;51.554;7.812;2024-03-23T17:24:52;5.03;;;1.85;;
78197;SDS011;67472;51.554;7.812;2024-03-23T17:27:40;5.93;;;2.25;;
78197;SDS011;67472;51.554;7.812;2024-03-23T17:30:25;3.25;;;1.73;;